Time;durP1;ratioP1;P1;durP2;ratioP2;P2;SDS_P1;SDS_P2;PMS_P1;PMS_P2;Temp;Humidity;BMP_temperature;BMP_pressure;BME280_temperature;BME280_humidity;BME280_pressure;Samples;Min_cycle;Max_cycle;Signal;HPM_P1;HPM_P2
2021/06/10 00:01:37;;;;;;;;;;;;;;;15.35;79.75;102069.19;5030487;28;1656;-82
2021/06/10 00:04:03;;;;;;;;;;;;;;;15.29;79.65;102067.00;5030786;28;988;-82
2021/06/10 00:06:28;;;;;;;;;;;;;;;15.27;80.25;102066.53;5012397;28;1700;-81
2021/06/10 00:08:53;;;;;;;;;;;;;;;15.21;80.27;102061.19;5034365;28;1873;-81
2021/06/10 00:11:19;;;;;;;;;;;;;;;15.16;80.11;102066.97;5039594;28;1841;-81
2021/06/10 00:13:44;;;;;;;;;;;;;;;15.08;80.30;102067.88;5029591;28;1174;-81
2021/06/10 00:16:09;;;;;;;;;;;;;;;15.03;80.30;102071.69;5029827;28;1641;-81
2021/06/10 00:18:35;;;;;;;;;;;;;;;14.98;80.86;102069.13;5029621;28;1965;-81
2021/06/10 00:21:00;;;;;;;;;;;;;;;14.96;81.24;102060.31;5036528;28;1910;-82
2021/06/10 00:23:25;;;;;;;;;;;;;;;14.90;81.38;102069.22;5028034;28;1830;-81
2021/06/10 00:25:51;;;;;;;;;;;;;;;14.83;81.58;102070.63;5028142;28;1932;-81
2021/06/10 00:28:16;;;;;;;;;;;;;;;14.80;82.23;102067.72;5028032;28;1253;-81
2021/06/10 00:30:41;;;;;;;;;;;;;;;14.78;82.66;102062.50;5029264;28;1680;-81
2021/06/10 00:33:07;;;;;;;;;;;;;;;14.80;83.29;102057.41;5028460;28;1003;-81
2021/06/10 00:35:32;;;;;;;;;;;;;;;14.81;83.10;102052.63;5029706;28;1830;-81
2021/06/10 00:37:59;;;;;;;;;;;;;;;14.80;82.67;102059.38;5027984;28;1935;-81
2021/06/10 00:40:30;;;;;;;;;;;;;;;14.80;82.99;102060.19;5029410;28;1825;-81
2021/06/10 00:42:57;;;;;;;;;;;;;;;14.82;82.93;102057.06;5028969;28;821;-82
2021/06/10 00:45:24;;;;;;;;;;;;;;;14.78;83.30;102059.72;5011484;28;1606;-81
2021/06/10 00:47:51;;;;;;;;;;;;;;;14.70;83.26;102057.81;5011388;28;1174;-81
2021/06/10 00:50:38;;;;;;;;;;;;;;;14.60;83.57;102059.09;5028424;28;1968;-81
2021/06/10 00:53:04;;;;;;;;;;;;;;;14.53;84.47;102060.75;5026980;28;901;-81
2021/06/10 00:55:29;;;;;;;;;;;;;;;14.46;84.70;102055.72;5027274;28;1885;-82
2021/06/10 00:57:55;;;;;;;;;;;;;;;14.41;85.00;102050.38;5028399;28;1875;-81
2021/06/10 01:00:23;;;;;;;;;;;;;;;14.38;85.34;102042.72;5028824;28;1661;-82
2021/06/10 01:02:48;;;;;;;;;;;;;;;14.36;85.99;102047.81;5027854;28;1868;-82
2021/06/10 01:05:14;;;;;;;;;;;;;;;14.33;86.02;102043.75;5026603;28;876;-81
2021/06/10 01:07:57;;;;;;;;;;;;;;;14.33;86.57;102049.31;5026098;28;1681;-81
2021/06/10 01:10:52;;;;;;;;;;;;;;;14.29;86.42;102040.84;5041304;28;1754;-82
2021/06/10 01:13:47;;;;;;;;;;;;;;;14.23;86.46;102042.22;5001167;28;1203;-81
2021/06/10 01:16:18;;;;;;;;;;;;;;;14.20;86.98;102042.06;5007480;28;1671;-82
2021/06/10 01:18:43;;;;;;;;;;;;;;;14.19;87.58;102041.28;5028397;28;1870;-82
2021/06/10 01:21:09;;;;;;;;;;;;;;;14.18;87.68;102038.81;5024049;28;984;-81
2021/06/10 01:24:00;;;;;;;;;;;;;;;14.13;87.38;102037.06;5018217;28;889;-81
2021/06/10 01:26:44;;;;;;;;;;;;;;;14.04;88.03;102031.56;5005268;28;882;-82
2021/06/10 01:29:12;;;;;;;;;;;;;;;13.96;87.97;102029.66;5016641;28;1717;-82
2021/06/10 01:31:40;;;;;;;;;;;;;;;13.88;88.10;102031.38;5029507;28;1898;-81
2021/06/10 01:34:07;;;;;;;;;;;;;;;13.85;89.01;102039.56;5028958;28;1621;-81
2021/06/10 01:36:40;;;;;;;;;;;;;;;13.82;88.88;102034.69;5029009;28;1878;-82
2021/06/10 01:39:08;;;;;;;;;;;;;;;13.76;89.48;102036.03;5010569;28;1643;-81
2021/06/10 01:41:35;;;;;;;;;;;;;;;13.71;89.39;102032.28;5028582;28;1051;-81
2021/06/10 01:44:02;;;;;;;;;;;;;;;13.66;90.01;102028.91;5027470;28;1660;-81
2021/06/10 01:46:31;;;;;;;;;;;;;;;13.62;89.86;102033.53;5027911;28;1913;-82
2021/06/10 01:48:57;;;;;;;;;;;;;;;13.57;90.21;102025.38;5028716;28;1219;-82
2021/06/10 01:51:26;;;;;;;;;;;;;;;13.51;90.32;102021.97;5029788;28;1913;-81
2021/06/10 01:53:53;;;;;;;;;;;;;;;13.48;90.93;102017.13;5024665;28;1893;-82
2021/06/10 01:56:22;;;;;;;;;;;;;;;13.45;91.12;102020.56;5027094;28;2000;-81
2021/06/10 01:58:49;;;;;;;;;;;;;;;13.40;91.46;102021.53;5027727;28;1268;-82
2021/06/10 02:01:15;;;;;;;;;;;;;;;13.37;91.60;102013.06;5028120;28;1063;-82
2021/06/10 02:03:42;;;;;;;;;;;;;;;13.34;91.77;102025.63;5027990;28;790;-81
2021/06/10 02:06:09;;;;;;;;;;;;;;;13.32;91.66;102014.91;5028363;28;1055;-82
2021/06/10 02:08:37;;;;;;;;;;;;;;;13.32;92.13;102016.84;5028084;28;1746;-82
2021/06/10 02:11:03;;;;;;;;;;;;;;;13.27;92.16;102017.00;5010639;28;1862;-82
2021/06/10 02:13:31;;;;;;;;;;;;;;;13.27;92.00;102014.22;5027891;28;1614;-81
2021/06/10 02:16:02;;;;;;;;;;;;;;;13.23;92.59;102016.06;5009949;28;1669;-82
2021/06/10 02:18:27;;;;;;;;;;;;;;;13.19;92.88;102010.38;5027356;28;1895;-82
2021/06/10 02:20:52;;;;;;;;;;;;;;;13.17;92.63;102004.34;5026913;28;1879;-84
2021/06/10 02:23:18;;;;;;;;;;;;;;;13.16;93.01;102009.06;5006453;28;1873;-81
2021/06/10 02:25:43;;;;;;;;;;;;;;;13.17;92.86;102012.66;5013373;28;1916;-81
2021/06/10 02:28:09;;;;;;;;;;;;;;;13.15;93.49;102015.75;5027897;28;1201;-82
2021/06/10 02:30:34;;;;;;;;;;;;;;;13.12;93.58;102010.88;5028356;28;1700;-82
2021/06/10 02:33:01;;;;;;;;;;;;;;;13.15;94.18;102012.19;5028122;28;860;-81
2021/06/10 02:35:26;;;;;;;;;;;;;;;13.15;94.13;102013.00;5027057;28;1598;-82
2021/06/10 02:37:58;;;;;;;;;;;;;;;13.13;94.20;102009.75;5027800;28;1933;-82
2021/06/10 02:40:32;;;;;;;;;;;;;;;13.14;94.66;102011.34;5028414;28;1795;-82
2021/06/10 02:43:02;;;;;;;;;;;;;;;13.12;94.58;102008.09;5027565;28;1551;-81
2021/06/10 02:45:28;;;;;;;;;;;;;;;13.12;94.49;101998.97;5010692;28;1605;-82
2021/06/10 02:47:55;;;;;;;;;;;;;;;13.08;94.38;102009.94;5009686;28;1776;-81
2021/06/10 02:50:22;;;;;;;;;;;;;;;13.04;94.45;102003.41;5032322;28;1718;-82
2021/06/10 02:52:50;;;;;;;;;;;;;;;13.07;94.90;102004.72;5042219;28;1710;-81
2021/06/10 02:55:17;;;;;;;;;;;;;;;13.08;94.72;102000.78;5024817;28;1046;-82
2021/06/10 02:57:46;;;;;;;;;;;;;;;13.14;94.83;102000.25;5010082;28;1882;-82
2021/06/10 03:00:12;;;;;;;;;;;;;;;13.12;94.63;101998.97;5027496;28;1890;-82
2021/06/10 03:02:38;;;;;;;;;;;;;;;13.06;94.38;101998.34;5046360;28;1945;-82
2021/06/10 03:05:06;;;;;;;;;;;;;;;13.03;94.72;101995.41;5028551;28;809;-83
2021/06/10 03:07:35;;;;;;;;;;;;;;;13.06;95.09;101989.22;5028301;28;1775;-81
2021/06/10 03:10:01;;;;;;;;;;;;;;;13.06;94.98;101994.75;5038114;28;1668;-83
2021/06/10 03:12:27;;;;;;;;;;;;;;;13.04;95.37;101997.84;5011866;28;1569;-82
2021/06/10 03:14:53;;;;;;;;;;;;;;;13.03;95.50;101990.69;5033636;28;1778;-81
2021/06/10 03:17:19;;;;;;;;;;;;;;;13.03;95.62;101996.25;5030297;28;1969;-82
2021/06/10 03:19:45;;;;;;;;;;;;;;;13.03;95.10;101989.88;5027460;28;1420;-82
2021/06/10 03:22:11;;;;;;;;;;;;;;;13.03;95.27;101989.88;5026267;28;1015;-82
2021/06/10 03:24:37;;;;;;;;;;;;;;;13.03;95.32;101989.88;5034818;28;1677;-81
2021/06/10 03:27:06;;;;;;;;;;;;;;;13.00;95.20;101994.13;5047576;28;896;-81
2021/06/10 03:29:31;;;;;;;;;;;;;;;12.98;95.18;101990.88;5040885;28;1677;-81
2021/06/10 03:31:57;;;;;;;;;;;;;;;13.02;95.42;101991.84;5012814;28;1272;-82
2021/06/10 03:34:23;;;;;;;;;;;;;;;13.08;95.49;101989.69;5031579;28;1614;-82
2021/06/10 03:36:48;;;;;;;;;;;;;;;13.09;95.59;101992.13;5030179;28;1879;-81
2021/06/10 03:39:17;;;;;;;;;;;;;;;13.11;95.31;101995.38;5029148;28;1858;-81
2021/06/10 03:41:44;;;;;;;;;;;;;;;13.12;95.36;101997.00;5031586;28;1695;-82
2021/06/10 03:44:10;;;;;;;;;;;;;;;13.19;95.77;102001.25;5031131;28;1016;-81
2021/06/10 03:46:36;;;;;;;;;;;;;;;13.22;95.31;101993.06;5031233;28;1423;-82
2021/06/10 03:49:02;;;;;;;;;;;;;;;13.30;95.63;101991.38;5030843;28;1162;-82
2021/06/10 03:51:28;;;;;;;;;;;;;;;13.35;95.52;101991.22;5030942;28;1633;-81
2021/06/10 03:53:55;;;;;;;;;;;;;;;13.39;94.87;101981.06;5046821;28;1959;-82
2021/06/10 03:56:21;;;;;;;;;;;;;;;13.46;95.18;101988.88;5028459;28;905;-81
2021/06/10 03:58:46;;;;;;;;;;;;;;;13.51;94.78;101988.66;5030126;28;1947;-82
2021/06/10 04:01:12;;;;;;;;;;;;;;;13.57;94.63;101986.53;5020014;28;1106;-81
2021/06/10 04:03:37;;;;;;;;;;;;;;;13.60;94.74;101985.84;5022210;28;790;-81
2021/06/10 04:06:03;;;;;;;;;;;;;;;13.63;94.47;101988.75;5026607;28;1682;-82
2021/06/10 04:08:28;;;;;;;;;;;;;;;13.71;94.93;101990.66;5029290;28;1792;-82
2021/06/10 04:10:54;;;;;;;;;;;;;;;13.81;94.71;101988.66;5047796;28;1869;-81
2021/06/10 04:13:19;;;;;;;;;;;;;;;13.92;94.09;101992.63;5050371;28;951;-82
2021/06/10 04:15:44;;;;;;;;;;;;;;;14.08;93.96;101992.81;5030229;28;1683;-82
2021/06/10 04:18:17;;;;;;;;;;;;;;;14.24;93.79;101991.06;5030017;28;1890;-83
2021/06/10 04:20:42;;;;;;;;;;;;;;;14.39;93.03;101997.94;5030486;28;1700;-82
2021/06/10 04:23:07;;;;;;;;;;;;;;;14.46;92.57;102003.78;5029269;28;1091;-83
2021/06/10 04:25:33;;;;;;;;;;;;;;;14.46;92.13;102006.56;5028668;28;1682;-82
2021/06/10 04:27:58;;;;;;;;;;;;;;;14.46;92.01;102003.78;5032159;28;1523;-82
2021/06/10 04:30:23;;;;;;;;;;;;;;;14.50;92.24;101995.56;5043944;28;1589;-81
2021/06/10 04:32:48;;;;;;;;;;;;;;;14.56;92.13;102001.72;5027762;28;873;-81
2021/06/10 04:35:14;;;;;;;;;;;;;;;14.66;91.96;101998.53;5025166;28;1435;-81
2021/06/10 04:37:41;;;;;;;;;;;;;;;14.82;91.39;101996.69;5024848;28;1947;-82
2021/06/10 04:40:07;;;;;;;;;;;;;;;15.02;90.74;101999.75;5027108;28;1880;-82
2021/06/10 04:42:32;;;;;;;;;;;;;;;15.19;89.58;102005.09;5028452;28;1751;-81
2021/06/10 04:44:57;;;;;;;;;;;;;;;15.30;89.24;102001.84;5029656;28;1629;-81
2021/06/10 04:47:23;;;;;;;;;;;;;;;15.32;88.65;102005.88;5029457;28;1288;-82
2021/06/10 04:49:48;;;;;;;;;;;;;;;15.36;88.32;102008.78;5029702;28;1653;-82
2021/06/10 04:52:14;;;;;;;;;;;;;;;15.46;88.11;101991.63;5029825;28;1522;-81
2021/06/10 04:54:40;;;;;;;;;;;;;;;15.57;87.82;101987.22;5020096;28;1655;-81
2021/06/10 04:57:06;;;;;;;;;;;;;;;15.74;87.66;101996.44;5046567;28;1924;-81
2021/06/10 04:59:31;;;;;;;;;;;;;;;15.93;87.00;102001.41;5035539;28;1653;-81
2021/06/10 05:01:57;;;;;;;;;;;;;;;16.14;86.43;101999.28;5033277;28;1305;-81
2021/06/10 05:04:22;;;;;;;;;;;;;;;16.34;85.38;101997.44;5041572;28;1419;-81
2021/06/10 05:06:50;;;;;;;;;;;;;;;16.50;84.80;101999.47;5040324;28;1036;-81
2021/06/10 05:09:16;;;;;;;;;;;;;;;16.72;84.18;102000.84;5044142;28;1708;-81
2021/06/10 05:11:41;;;;;;;;;;;;;;;16.88;83.67;101998.91;5043521;28;1581;-81
2021/06/10 05:14:06;;;;;;;;;;;;;;;16.99;82.92;101995.56;5038994;28;1501;-82
2021/06/10 05:16:32;;;;;;;;;;;;;;;16.98;83.07;101991.19;5017010;28;1883;-81
2021/06/10 05:18:57;;;;;;;;;;;;;;;17.08;82.59;101988.66;5026993;28;1601;-81
2021/06/10 05:21:23;;;;;;;;;;;;;;;17.33;81.32;101985.66;5026429;28;1059;-81
2021/06/10 05:23:49;;;;;;;;;;;;;;;17.57;80.47;101992.97;5034066;28;1819;-80
2021/06/10 05:26:14;;;;;;;;;;;;;;;17.80;78.50;101987.50;5028671;28;1046;-81
2021/06/10 05:28:39;;;;;;;;;;;;;;;18.01;76.90;101990.00;5027943;28;1627;-81
2021/06/10 05:31:07;;;;;;;;;;;;;;;18.17;74.88;101984.31;5030029;28;1941;-81
2021/06/10 05:33:33;;;;;;;;;;;;;;;18.27;73.40;101980.09;5045936;28;1893;-81
2021/06/10 05:35:59;;;;;;;;;;;;;;;18.45;72.67;101974.88;5048643;28;1281;-80
2021/06/10 05:38:24;;;;;;;;;;;;;;;18.57;72.05;101977.50;5052854;28;1871;-80
2021/06/10 05:40:50;;;;;;;;;;;;;;;18.70;72.35;101982.91;5056458;28;1885;-80
2021/06/10 05:43:15;;;;;;;;;;;;;;;18.92;70.97;101984.94;5035072;28;1055;-81
2021/06/10 05:45:40;;;;;;;;;;;;;;;19.10;69.77;101974.06;5028454;28;988;-81
2021/06/10 05:48:07;;;;;;;;;;;;;;;19.31;68.69;101972.75;5024388;28;2973;-80
2021/06/10 05:50:32;;;;;;;;;;;;;;;19.59;66.92;101977.16;5027853;28;826;-80
2021/06/10 05:52:58;;;;;;;;;;;;;;;19.86;65.91;101969.53;5028185;28;981;-81
2021/06/10 05:55:23;;;;;;;;;;;;;;;20.13;64.15;101978.69;5027048;28;2030;-80
2021/06/10 05:57:48;;;;;;;;;;;;;;;20.33;64.32;101979.34;5027944;28;1961;-81
2021/06/10 06:00:16;;;;;;;;;;;;;;;20.49;64.88;101981.91;5026404;28;1058;-81
2021/06/10 06:02:41;;;;;;;;;;;;;;;20.65;65.06;101979.69;5028721;28;1814;-81
2021/06/10 06:05:07;;;;;;;;;;;;;;;20.61;60.08;101978.00;5021781;28;2416;-83
2021/06/10 06:07:32;;;;;;;;;;;;;;;20.46;63.06;101977.06;5007644;28;1232;-81
2021/06/10 06:09:57;;;;;;;;;;;;;;;20.62;61.74;101977.63;5017414;28;1916;-81
2021/06/10 06:12:23;;;;;;;;;;;;;;;20.95;60.84;101969.50;5027826;28;1023;-80
2021/06/10 06:14:49;;;;;;;;;;;;;;;21.28;59.92;101979.00;5009924;28;1200;-80
2021/06/10 06:17:15;;;;;;;;;;;;;;;21.48;58.68;101969.13;5026953;28;1902;-80
2021/06/10 06:19:41;;;;;;;;;;;;;;;21.70;59.59;101969.25;5027383;28;1967;-80
2021/06/10 06:22:09;;;;;;;;;;;;;;;21.86;59.65;101977.34;5026776;28;1091;-80
2021/06/10 06:24:35;;;;;;;;;;;;;;;21.95;57.32;101977.78;5026618;28;1818;-81
2021/06/10 06:27:01;;;;;;;;;;;;;;;22.02;58.53;101979.84;5026741;28;1695;-80
2021/06/10 06:29:27;;;;;;;;;;;;;;;22.24;58.81;101977.91;5026525;28;1250;-80
2021/06/10 06:31:53;;;;;;;;;;;;;;;22.88;56.60;101980.03;5027132;28;1059;-80
2021/06/10 06:34:18;;;;;;;;;;;;;;;23.51;54.51;101980.41;5025902;28;1901;-80
2021/06/10 06:36:43;;;;;;;;;;;;;;;24.01;53.44;101971.78;5019764;28;1894;-80
2021/06/10 06:39:09;;;;;;;;;;;;;;;24.81;52.18;101979.81;5016843;28;1849;-80
2021/06/10 06:41:35;;;;;;;;;;;;;;;25.67;50.23;101979.00;5024345;28;2349;-80
2021/06/10 06:44:01;;;;;;;;;;;;;;;25.79;48.14;101981.28;5026099;28;901;-80
2021/06/10 06:46:27;;;;;;;;;;;;;;;25.88;48.10;101990.03;5032443;28;1213;-80
2021/06/10 06:48:52;;;;;;;;;;;;;;;26.23;46.44;101987.22;5045458;28;1204;-80
2021/06/10 06:51:18;;;;;;;;;;;;;;;26.99;45.32;101984.88;5035516;28;1841;-80
2021/06/10 06:53:43;;;;;;;;;;;;;;;28.07;43.63;101985.66;5005703;28;1844;-80
2021/06/10 06:56:08;;;;;;;;;;;;;;;29.07;40.96;101990.25;5023569;28;2106;-80
2021/06/10 06:58:34;;;;;;;;;;;;;;;29.70;37.98;101988.16;5023007;28;1959;-80
2021/06/10 07:00:59;;;;;;;;;;;;;;;30.42;35.42;101980.34;5021661;28;1086;-80
2021/06/10 07:03:24;;;;;;;;;;;;;;;30.70;35.47;101982.28;5022441;28;909;-80
2021/06/10 07:05:52;;;;;;;;;;;;;;;31.30;34.16;101987.19;5025247;28;905;-80
2021/06/10 07:08:18;;;;;;;;;;;;;;;31.64;33.70;101985.56;5026327;28;2065;-81
2021/06/10 07:10:43;;;;;;;;;;;;;;;31.92;32.94;101988.59;5026323;28;1818;-80
2021/06/10 07:13:08;;;;;;;;;;;;;;;32.50;31.76;101984.31;5024148;28;886;-82
2021/06/10 07:15:34;;;;;;;;;;;;;;;32.65;30.70;101995.19;5025468;28;842;-81
2021/06/10 07:17:59;;;;;;;;;;;;;;;32.93;29.56;101996.84;5025872;28;1890;-81
2021/06/10 07:20:25;;;;;;;;;;;;;;;32.87;27.90;101998.72;5025370;28;873;-80
2021/06/10 07:22:50;;;;;;;;;;;;;;;32.80;28.80;101993.31;5025117;28;973;-81
2021/06/10 07:25:16;;;;;;;;;;;;;;;32.36;28.00;101994.25;5024852;28;2083;-80
2021/06/10 07:27:43;;;;;;;;;;;;;;;33.06;28.41;101993.84;5025622;28;1272;-80
2021/06/10 07:30:09;;;;;;;;;;;;;;;34.75;26.77;101993.91;5025078;28;877;-80
2021/06/10 07:32:34;;;;;;;;;;;;;;;35.57;23.17;101983.84;5024649;28;853;-80
2021/06/10 07:35:00;;;;;;;;;;;;;;;36.37;21.66;101988.13;5024626;28;1000;-80
2021/06/10 07:37:26;;;;;;;;;;;;;;;36.66;22.36;101993.78;5023811;28;2056;-80
2021/06/10 07:39:51;;;;;;;;;;;;;;;37.06;21.59;101997.22;5024528;28;2066;-80
2021/06/10 07:42:17;;;;;;;;;;;;;;;37.55;21.24;101988.91;5027013;28;1865;-80
2021/06/10 07:44:42;;;;;;;;;;;;;;;38.08;20.45;101989.69;5025046;28;1099;-80
2021/06/10 07:47:07;;;;;;;;;;;;;;;38.82;20.28;101991.78;5023533;28;1920;-80
2021/06/10 07:49:33;;;;;;;;;;;;;;;38.35;19.24;101997.00;5024568;28;1229;-81
2021/06/10 07:51:59;;;;;;;;;;;;;;;38.00;19.04;101997.97;5024601;28;908;-81
2021/06/10 07:54:25;;;;;;;;;;;;;;;38.06;19.67;101995.94;5025226;28;1895;-82
2021/06/10 07:56:50;;;;;;;;;;;;;;;38.19;19.95;101999.25;5024781;28;1914;-81
2021/06/10 07:59:22;;;;;;;;;;;;;;;38.25;20.92;102004.25;5024402;28;1165;-81
2021/06/10 08:01:47;;;;;;;;;;;;;;;38.10;19.37;102002.25;5024798;28;2018;-80
2021/06/10 08:04:12;;;;;;;;;;;;;;;37.85;19.79;102001.00;5024779;28;932;-81
2021/06/10 08:06:38;;;;;;;;;;;;;;;38.17;18.81;102001.03;5024251;28;924;-80
2021/06/10 08:09:03;;;;;;;;;;;;;;;37.42;19.23;102007.34;5023332;28;1687;-80
2021/06/10 08:11:29;;;;;;;;;;;;;;;36.40;20.00;102010.91;5024638;28;980;-81
2021/06/10 08:13:54;;;;;;;;;;;;;;;35.47;21.98;102007.41;5025055;28;858;-81
2021/06/10 08:16:20;;;;;;;;;;;;;;;35.94;21.62;102009.38;5025430;28;1217;-80
2021/06/10 08:18:46;;;;;;;;;;;;;;;36.06;21.10;102015.28;5024633;28;1892;-81
2021/06/10 08:21:11;;;;;;;;;;;;;;;35.83;21.36;102009.16;5025004;28;881;-80
2021/06/10 08:23:37;;;;;;;;;;;;;;;35.84;20.68;102018.59;5024007;28;988;-80
2021/06/10 08:26:03;;;;;;;;;;;;;;;35.33;20.16;102017.56;5024746;28;2021;-80
2021/06/10 08:28:30;;;;;;;;;;;;;;;35.28;21.92;102013.28;5025009;28;1201;-80
2021/06/10 08:30:56;;;;;;;;;;;;;;;36.15;21.23;102021.72;5024888;28;913;-80
2021/06/10 08:33:23;;;;;;;;;;;;;;;36.36;19.59;102013.22;5024408;28;809;-81
2021/06/10 08:35:49;;;;;;;;;;;;;;;36.31;20.31;102011.03;5024838;28;2007;-80
2021/06/10 08:38:14;;;;;;;;;;;;;;;36.31;20.83;102017.56;5024813;28;2001;-80
2021/06/10 08:40:39;;;;;;;;;;;;;;;35.78;21.55;102012.72;5025592;28;2124;-80
2021/06/10 08:43:07;;;;;;;;;;;;;;;36.99;20.77;102006.28;5026566;28;922;-80
2021/06/10 08:45:34;;;;;;;;;;;;;;;37.59;20.48;102009.63;5026516;28;1040;-81
2021/06/10 08:48:00;;;;;;;;;;;;;;;38.24;19.20;101996.91;5023283;28;1363;-81
2021/06/10 08:50:27;;;;;;;;;;;;;;;38.33;18.31;101997.50;5022750;28;1967;-79
2021/06/10 08:52:54;;;;;;;;;;;;;;;38.95;19.30;101997.06;5024546;28;865;-79
2021/06/10 08:55:20;;;;;;;;;;;;;;;39.28;18.08;101996.47;5024571;28;1825;-79
2021/06/10 08:57:46;;;;;;;;;;;;;;;38.96;18.16;101995.78;5023790;28;1983;-79
2021/06/10 09:00:12;;;;;;;;;;;;;;;38.43;18.29;102003.06;5022721;28;1995;-79
2021/06/10 09:02:38;;;;;;;;;;;;;;;38.60;18.12;102009.75;5022601;28;959;-79
2021/06/10 09:05:05;;;;;;;;;;;;;;;38.85;18.73;101998.59;5024316;28;1822;-78
2021/06/10 09:07:39;;;;;;;;;;;;;;;39.61;18.44;101988.41;5023653;28;1202;-79
2021/06/10 09:10:07;;;;;;;;;;;;;;;38.67;18.24;101997.72;5022993;28;1991;-79
2021/06/10 09:12:53;;;;;;;;;;;;;;;38.38;17.82;101993.06;5023850;28;1054;-79
2021/06/10 09:15:20;;;;;;;;;;;;;;;37.91;18.38;102001.84;5022697;28;1020;-78
2021/06/10 09:17:46;;;;;;;;;;;;;;;37.80;18.74;101996.78;5029184;28;1890;-78
2021/06/10 09:20:17;;;;;;;;;;;;;;;38.43;19.02;101997.28;5032030;28;2310;-79
2021/06/10 09:22:43;;;;;;;;;;;;;;;40.26;17.44;101986.59;5007833;28;987;-80
2021/06/10 09:25:16;;;;;;;;;;;;;;;41.43;15.50;101983.88;5021369;28;1995;-79
2021/06/10 09:27:56;;;;;;;;;;;;;;;40.93;15.56;101988.56;5021151;28;1205;-79
2021/06/10 09:30:43;;;;;;;;;;;;;;;41.00;15.68;101995.91;5021397;28;1000;-79
2021/06/10 09:33:11;;;;;;;;;;;;;;;40.76;15.11;101989.38;5022528;28;837;-79
2021/06/10 09:35:40;;;;;;;;;;;;;;;40.90;16.05;102009.91;5023581;28;896;-79
2021/06/10 09:38:09;;;;;;;;;;;;;;;39.65;15.26;101991.84;5005828;28;1936;-79
2021/06/10 09:40:35;;;;;;;;;;;;;;;39.57;15.20;101991.53;5002847;28;1841;-79
2021/06/10 09:43:01;;;;;;;;;;;;;;;39.15;15.16;101999.03;5002805;28;1048;-81
2021/06/10 09:45:28;;;;;;;;;;;;;;;38.54;15.97;101995.28;5003649;28;887;-78
2021/06/10 09:47:59;;;;;;;;;;;;;;;38.72;15.98;101996.97;5004660;28;1205;-79
2021/06/10 09:50:43;;;;;;;;;;;;;;;39.01;16.84;101997.91;5003208;28;900;-80
2021/06/10 09:53:18;;;;;;;;;;;;;;;39.38;15.49;101990.44;5022339;28;1908;-78
2021/06/10 09:56:00;;;;;;;;;;;;;;;39.70;15.88;101998.91;5025194;28;1978;-79
2021/06/10 09:58:35;;;;;;;;;;;;;;;40.11;15.70;101993.47;5022742;28;1878;-78
2021/06/10 10:01:02;;;;;;;;;;;;;;;40.38;13.74;101991.06;5022388;28;797;-79
2021/06/10 10:03:29;;;;;;;;;;;;;;;38.94;14.78;101995.53;5021945;28;822;-79
2021/06/10 10:06:05;;;;;;;;;;;;;;;37.21;15.29;102005.81;5021478;28;797;-80
2021/06/10 10:08:32;;;;;;;;;;;;;;;37.02;15.16;102005.28;5021718;28;1205;-81
2021/06/10 10:11:00;;;;;;;;;;;;;;;36.83;15.19;102007.66;5020820;28;2152;-80
2021/06/10 10:13:27;;;;;;;;;;;;;;;36.52;15.26;102006.13;5020431;28;1945;-80
2021/06/10 10:15:53;;;;;;;;;;;;;;;37.48;15.43;102006.63;5021553;28;893;-81
2021/06/10 10:18:19;;;;;;;;;;;;;;;38.18;14.55;102005.50;5021833;28;1898;-81
2021/06/10 10:20:47;;;;;;;;;;;;;;;38.34;14.02;101998.28;5021155;28;2107;-81
2021/06/10 10:23:13;;;;;;;;;;;;;;;39.01;14.21;101997.13;5021677;28;837;-81
2021/06/10 10:25:39;;;;;;;;;;;;;;;38.69;14.15;102008.75;5020799;28;1927;-80
2021/06/10 10:28:10;;;;;;;;;;;;;;;38.69;14.79;102003.78;5020158;28;1198;-80
2021/06/10 10:30:43;;;;;;;;;;;;;;;38.67;14.90;102003.50;5001538;28;814;-79
2021/06/10 10:33:13;;;;;;;;;;;;;;;38.86;16.45;101997.31;5020382;28;889;-79
2021/06/10 10:35:47;;;;;;;;;;;;;;;38.78;16.01;102005.69;5020024;28;2046;-79
2021/06/10 10:38:13;;;;;;;;;;;;;;;39.04;14.27;102004.75;5017817;28;1914;-79
2021/06/10 10:40:40;;;;;;;;;;;;;;;38.33;16.69;102000.38;5019071;28;1818;-79
2021/06/10 10:43:13;;;;;;;;;;;;;;;38.82;15.77;101999.66;5019182;28;845;-79
2021/06/10 10:45:44;;;;;;;;;;;;;;;39.09;15.52;102004.00;5019347;28;842;-79
2021/06/10 10:48:12;;;;;;;;;;;;;;;39.52;14.94;102000.22;5001622;28;2072;-79
2021/06/10 10:50:40;;;;;;;;;;;;;;;39.78;14.57;101989.22;5020023;28;880;-79
2021/06/10 10:53:21;;;;;;;;;;;;;;;39.69;14.75;101989.47;5021038;28;992;-79
2021/06/10 10:56:03;;;;;;;;;;;;;;;40.04;15.13;101988.19;5021951;28;1948;-79
2021/06/10 10:58:29;;;;;;;;;;;;;;;39.80;14.86;101977.94;5020600;28;1959;-79
2021/06/10 11:00:59;;;;;;;;;;;;;;;39.35;14.74;101982.81;5020070;28;2074;-79
2021/06/10 11:03:26;;;;;;;;;;;;;;;39.05;14.96;101989.81;5022114;28;839;-79
2021/06/10 11:05:53;;;;;;;;;;;;;;;39.53;15.98;101982.34;5001618;28;881;-79
2021/06/10 11:08:20;;;;;;;;;;;;;;;39.98;14.40;101988.19;5000138;28;1151;-79
2021/06/10 11:10:52;;;;;;;;;;;;;;;40.88;13.23;101986.50;5017673;28;3175;-79
2021/06/10 11:13:22;;;;;;;;;;;;;;;40.60;13.71;101987.34;5003275;28;1439;-79
2021/06/10 11:15:50;;;;;;;;;;;;;;;39.18;13.90;101983.56;5015899;28;3103;-78
2021/06/10 11:18:39;;;;;;;;;;;;;;;39.24;14.71;101987.25;5022312;28;1874;-78
2021/06/10 11:21:05;;;;;;;;;;;;;;;38.76;14.63;101976.53;5020057;28;1891;-79
2021/06/10 11:23:30;;;;;;;;;;;;;;;39.33;13.99;101982.53;5006589;28;2382;-81
2021/06/10 11:25:58;;;;;;;;;;;;;;;39.71;12.80;101981.06;5019659;28;2101;-81
2021/06/10 11:28:26;;;;;;;;;;;;;;;39.05;13.20;101978.25;5016771;28;1142;-79
2021/06/10 11:30:54;;;;;;;;;;;;;;;39.24;14.98;101978.59;5001659;28;2795;-81
2021/06/10 11:33:20;;;;;;;;;;;;;;;40.08;13.37;101987.91;4999668;28;892;-81
2021/06/10 11:36:12;;;;;;;;;;;;;;;39.60;13.89;101978.16;5001527;28;1861;-79
2021/06/10 11:38:47;;;;;;;;;;;;;;;40.82;13.02;101979.94;4998503;28;1158;-80
2021/06/10 11:41:17;;;;;;;;;;;;;;;41.24;12.82;101963.44;5037535;28;1949;-79
2021/06/10 11:43:57;;;;;;;;;;;;;;;41.27;13.08;101956.56;5035733;28;1055;-80
2021/06/10 11:46:34;;;;;;;;;;;;;;;41.40;14.25;101970.44;5034475;28;2027;-80
2021/06/10 11:49:00;;;;;;;;;;;;;;;40.53;13.38;101964.75;5021966;28;2055;-78
2021/06/10 11:51:28;;;;;;;;;;;;;;;40.06;15.31;101968.22;5015688;28;898;-80
2021/06/10 11:54:04;;;;;;;;;;;;;;;40.95;13.54;101965.66;5019798;28;2031;-79
2021/06/10 11:56:30;;;;;;;;;;;;;;;41.82;12.22;101960.38;4999673;28;804;-78
2021/06/10 11:59:02;;;;;;;;;;;;;;;41.47;11.97;101961.94;4998742;28;1182;-79
2021/06/10 12:01:28;;;;;;;;;;;;;;;41.21;11.89;101959.47;5011764;28;2047;-78
2021/06/10 12:03:53;;;;;;;;;;;;;;;41.14;12.79;101960.03;5023285;28;984;-81
2021/06/10 12:06:19;;;;;;;;;;;;;;;41.15;12.70;101958.69;5024223;28;1024;-80
2021/06/10 12:08:47;;;;;;;;;;;;;;;42.01;11.46;101956.78;5007404;28;2126;-79
2021/06/10 12:11:15;;;;;;;;;;;;;;;41.29;11.39;101959.69;5040661;28;2043;-79
2021/06/10 12:13:48;;;;;;;;;;;;;;;41.05;11.88;101961.13;5040609;28;809;-81
2021/06/10 12:16:17;;;;;;;;;;;;;;;40.97;11.87;101955.09;5043105;28;1904;-80
2021/06/10 12:18:49;;;;;;;;;;;;;;;41.86;11.42;101963.78;5043728;28;1265;-81
2021/06/10 12:21:17;;;;;;;;;;;;;;;41.54;10.57;101960.59;5036702;28;2169;-80
2021/06/10 12:23:51;;;;;;;;;;;;;;;41.33;11.45;101961.00;5025352;28;921;-80
2021/06/10 12:26:19;;;;;;;;;;;;;;;40.10;11.19;101916.69;5025058;28;2029;-80
2021/06/10 12:28:59;;;;;;;;;;;;;;;40.67;10.84;101957.84;5024427;28;1886;-79
2021/06/10 12:31:26;;;;;;;;;;;;;;;39.98;9.05;101958.50;5039442;28;2108;-79
2021/06/10 12:33:53;;;;;;;;;;;;;;;38.72;10.93;101965.22;5029030;28;2126;-80
2021/06/10 12:36:23;;;;;;;;;;;;;;;38.05;12.61;101956.88;5025805;28;972;-80
2021/06/10 12:38:57;;;;;;;;;;;;;;;38.48;11.25;101956.94;5024585;28;2231;-80
2021/06/10 12:41:26;;;;;;;;;;;;;;;38.15;12.22;101961.19;5008732;28;953;-79
2021/06/10 12:43:52;;;;;;;;;;;;;;;38.26;12.21;101969.16;5013460;28;1057;-79
2021/06/10 12:46:19;;;;;;;;;;;;;;;36.66;13.57;101967.91;5018409;28;2066;-79
2021/06/10 12:48:56;;;;;;;;;;;;;;;36.44;14.52;101964.72;5033246;28;1890;-79
2021/06/10 12:51:31;;;;;;;;;;;;;;;36.43;14.72;101954.50;5032994;28;880;-79